createdAt,value
2023-05-18T00:00:22.184Z,496.00
2023-05-18T00:01:22.155Z,499.00
2023-05-18T00:02:22.172Z,498.00
2023-05-18T00:03:22.211Z,498.00
2023-05-18T00:04:22.189Z,498.00
2023-05-18T00:05:22.133Z,499.00
2023-05-18T00:06:22.144Z,497.00
2023-05-18T00:07:22.132Z,497.00
2023-05-18T00:08:22.157Z,496.00
2023-05-18T00:09:22.137Z,496.00
2023-05-18T00:10:22.204Z,496.00
2023-05-18T00:11:22.152Z,496.00
2023-05-18T00:12:22.164Z,496.00
2023-05-18T00:13:22.155Z,498.00
2023-05-18T00:14:22.164Z,498.00
2023-05-18T00:15:22.214Z,499.00
2023-05-18T00:16:22.224Z,498.00
2023-05-18T00:17:22.661Z,500.00
2023-05-18T00:18:22.201Z,500.00
2023-05-18T00:19:22.241Z,497.00
2023-05-18T00:20:22.289Z,497.00
2023-05-18T00:21:22.234Z,498.00
2023-05-18T00:22:22.288Z,496.00
2023-05-18T00:23:22.303Z,494.00
2023-05-18T00:24:22.375Z,492.00
2023-05-18T00:25:22.356Z,493.00
2023-05-18T00:26:22.432Z,492.00
2023-05-18T00:27:22.428Z,492.00
2023-05-18T00:28:22.427Z,494.00
2023-05-18T00:29:22.545Z,495.00
2023-05-18T00:30:22.453Z,495.00
2023-05-18T00:31:22.528Z,496.00
2023-05-18T00:32:22.509Z,492.00
2023-05-18T00:33:22.530Z,492.00
2023-05-18T00:34:22.516Z,494.00
2023-05-18T00:35:22.520Z,498.00
2023-05-18T00:36:22.529Z,499.00
2023-05-18T00:37:22.562Z,500.00
2023-05-18T00:38:22.612Z,502.00
2023-05-18T00:39:22.561Z,502.00
2023-05-18T00:40:22.564Z,501.00
2023-05-18T00:41:22.560Z,500.00
2023-05-18T00:42:22.607Z,498.00
2023-05-18T00:43:22.678Z,498.00
2023-05-18T00:44:22.649Z,497.00
2023-05-18T00:45:22.652Z,497.00
2023-05-18T00:46:22.669Z,498.00
2023-05-18T00:47:22.709Z,500.00
2023-05-18T00:48:22.750Z,500.00
2023-05-18T00:49:22.723Z,500.00
2023-05-18T00:50:22.783Z,502.00
2023-05-18T00:51:22.790Z,502.00
2023-05-18T00:52:22.780Z,503.00
2023-05-18T00:53:22.853Z,501.00
2023-05-18T00:54:22.834Z,501.00
2023-05-18T00:55:22.851Z,501.00
2023-05-18T00:56:22.877Z,497.00
2023-05-18T00:57:22.879Z,495.00
2023-05-18T00:58:22.882Z,494.00
2023-05-18T00:59:22.908Z,493.00
2023-05-18T01:00:22.918Z,492.00
2023-05-18T01:01:22.930Z,493.00
2023-05-18T01:02:22.937Z,494.00
2023-05-18T01:03:22.908Z,493.00
2023-05-18T01:04:22.876Z,493.00
2023-05-18T01:05:22.891Z,494.00
2023-05-18T01:06:22.893Z,494.00
2023-05-18T01:07:22.902Z,495.00
2023-05-18T01:08:22.914Z,494.00
2023-05-18T01:09:22.906Z,496.00
2023-05-18T01:10:22.874Z,495.00
2023-05-18T01:11:22.906Z,497.00
2023-05-18T01:12:22.878Z,497.00
2023-05-18T01:13:22.889Z,497.00
2023-05-18T01:14:22.891Z,498.00
2023-05-18T01:15:22.904Z,495.00
2023-05-18T01:16:22.988Z,495.00
2023-05-18T01:17:22.966Z,494.00
2023-05-18T01:18:22.892Z,495.00
2023-05-18T01:19:23.006Z,493.00
2023-05-18T01:20:22.892Z,490.00
2023-05-18T01:21:22.901Z,487.00
2023-05-18T01:22:22.878Z,486.00
2023-05-18T01:23:22.907Z,488.00
2023-05-18T01:24:22.919Z,487.00
2023-05-18T01:25:22.874Z,488.00
2023-05-18T01:26:22.877Z,490.00
2023-05-18T01:27:22.874Z,489.00
2023-05-18T01:28:23.015Z,488.00
2023-05-18T01:29:22.890Z,489.00
2023-05-18T01:30:22.877Z,489.00
2023-05-18T01:31:23.082Z,489.00
2023-05-18T01:32:22.931Z,490.00
2023-05-18T01:33:22.874Z,493.00
2023-05-18T01:34:22.876Z,493.00
2023-05-18T01:35:22.889Z,494.00
2023-05-18T01:36:22.863Z,493.00
2023-05-18T01:37:22.898Z,493.00
2023-05-18T01:38:22.908Z,495.00
2023-05-18T01:39:22.911Z,494.00
2023-05-18T01:40:22.920Z,497.00
2023-05-18T01:41:22.878Z,497.00
2023-05-18T01:42:22.890Z,495.00
2023-05-18T01:43:22.891Z,495.00
2023-05-18T01:44:22.888Z,492.00
2023-05-18T01:45:22.914Z,491.00
2023-05-18T01:46:22.979Z,494.00
2023-05-18T01:47:22.872Z,492.00
2023-05-18T01:48:22.874Z,490.00
2023-05-18T01:49:22.921Z,489.00
2023-05-18T01:50:22.904Z,489.00
2023-05-18T01:51:22.944Z,488.00
2023-05-18T01:52:22.916Z,485.00
2023-05-18T01:53:22.911Z,487.00
2023-05-18T01:54:22.916Z,488.00
2023-05-18T01:55:22.925Z,489.00
2023-05-18T01:56:22.902Z,489.00
2023-05-18T01:57:22.937Z,488.00
2023-05-18T01:58:22.943Z,490.00
2023-05-18T01:59:22.947Z,490.00
2023-05-18T02:00:22.965Z,491.00
2023-05-18T02:01:23.076Z,492.00
2023-05-18T02:02:23.070Z,491.00
2023-05-18T02:03:23.013Z,491.00
2023-05-18T02:04:22.933Z,493.00
2023-05-18T02:05:22.940Z,494.00
2023-05-18T02:06:22.942Z,496.00
2023-05-18T02:07:22.901Z,496.00
2023-05-18T02:08:22.905Z,499.00
2023-05-18T02:09:22.919Z,498.00
2023-05-18T02:10:22.931Z,497.00
2023-05-18T02:11:22.925Z,496.00
2023-05-18T02:12:22.940Z,496.00
2023-05-18T02:13:23.707Z,497.00
2023-05-18T02:14:22.946Z,497.00
2023-05-18T02:15:22.905Z,497.00
2023-05-18T02:16:22.911Z,497.00
2023-05-18T02:17:22.971Z,495.00
2023-05-18T02:18:22.929Z,495.00
2023-05-18T02:19:23.053Z,495.00
2023-05-18T02:20:22.939Z,496.00
2023-05-18T02:21:22.945Z,495.00
2023-05-18T02:22:22.895Z,493.00
2023-05-18T02:23:22.963Z,490.00
2023-05-18T02:24:22.964Z,491.00
2023-05-18T02:25:22.968Z,490.00
2023-05-18T02:26:22.975Z,492.00
2023-05-18T02:27:22.946Z,491.00
2023-05-18T02:28:22.930Z,491.00
2023-05-18T02:29:22.941Z,491.00
2023-05-18T02:30:22.948Z,490.00
2023-05-18T02:31:22.974Z,490.00
2023-05-18T02:32:22.974Z,489.00
2023-05-18T02:33:22.969Z,489.00
2023-05-18T02:34:22.967Z,489.00
2023-05-18T02:35:22.937Z,488.00
2023-05-18T02:36:22.980Z,487.00
2023-05-18T02:37:22.961Z,489.00
2023-05-18T02:38:22.961Z,489.00
2023-05-18T02:39:22.955Z,490.00
2023-05-18T02:40:22.969Z,490.00
2023-05-18T02:41:22.967Z,489.00
2023-05-18T02:42:22.933Z,487.00
2023-05-18T02:43:22.975Z,487.00
2023-05-18T02:44:22.932Z,486.00
2023-05-18T02:45:22.959Z,489.00
2023-05-18T02:46:23.001Z,486.00
2023-05-18T02:47:22.955Z,487.00
2023-05-18T02:48:22.973Z,486.00
2023-05-18T02:49:22.928Z,485.00
2023-05-18T02:50:22.944Z,489.00
2023-05-18T02:51:22.950Z,487.00
2023-05-18T02:52:22.956Z,487.00
2023-05-18T02:53:22.944Z,485.00
2023-05-18T02:54:22.965Z,484.00
2023-05-18T02:55:22.960Z,484.00
2023-05-18T02:56:22.990Z,485.00
2023-05-18T02:57:23.042Z,486.00
2023-05-18T02:58:23.006Z,488.00
2023-05-18T02:59:23.679Z,490.00
2023-05-18T03:00:23.008Z,489.00
2023-05-18T03:01:22.985Z,488.00
2023-05-18T03:02:23.023Z,488.00
2023-05-18T03:03:23.118Z,486.00
2023-05-18T03:04:22.983Z,485.00
2023-05-18T03:05:22.995Z,486.00
2023-05-18T03:06:22.976Z,487.00
2023-05-18T03:07:23.003Z,488.00
2023-05-18T03:08:22.988Z,488.00
2023-05-18T03:09:22.984Z,489.00
2023-05-18T03:10:22.966Z,488.00
2023-05-18T03:11:23.035Z,485.00
2023-05-18T03:12:22.988Z,483.00
2023-05-18T03:13:22.993Z,482.00
2023-05-18T03:14:22.979Z,485.00
2023-05-18T03:15:23.019Z,485.00
2023-05-18T03:16:23.017Z,484.00
2023-05-18T03:17:23.070Z,482.00
2023-05-18T03:18:23.036Z,484.00
2023-05-18T03:19:23.050Z,483.00
2023-05-18T03:20:23.045Z,483.00
2023-05-18T03:21:23.040Z,483.00
2023-05-18T03:22:23.047Z,485.00
2023-05-18T03:23:23.051Z,485.00
2023-05-18T03:24:23.122Z,485.00
2023-05-18T03:25:23.075Z,488.00
2023-05-18T03:26:23.080Z,488.00
2023-05-18T03:27:23.098Z,485.00
2023-05-18T03:28:23.063Z,485.00
2023-05-18T03:29:23.056Z,484.00
2023-05-18T03:30:23.104Z,484.00
2023-05-18T03:31:23.211Z,484.00
2023-05-18T03:32:23.125Z,484.00
2023-05-18T03:33:23.130Z,485.00
2023-05-18T03:34:23.156Z,483.00
2023-05-18T03:35:23.146Z,484.00
2023-05-18T03:36:23.160Z,485.00
2023-05-18T03:37:23.160Z,485.00
2023-05-18T03:38:23.166Z,483.00
2023-05-18T03:39:23.173Z,481.00
2023-05-18T03:40:23.194Z,479.00
2023-05-18T03:41:23.187Z,477.00
2023-05-18T03:42:23.196Z,479.00
2023-05-18T03:43:23.213Z,480.00
2023-05-18T03:44:23.206Z,477.00
2023-05-18T03:45:23.235Z,476.00
2023-05-18T03:46:23.265Z,478.00
2023-05-18T03:47:23.279Z,478.00
2023-05-18T03:48:23.230Z,478.00
2023-05-18T03:49:23.274Z,477.00
2023-05-18T03:50:23.250Z,477.00
2023-05-18T03:51:23.263Z,477.00
2023-05-18T03:52:23.311Z,477.00
2023-05-18T03:53:23.321Z,477.00
2023-05-18T03:54:23.319Z,479.00
2023-05-18T03:55:23.333Z,478.00
2023-05-18T03:56:23.363Z,477.00
2023-05-18T03:57:23.340Z,476.00
2023-05-18T03:58:23.350Z,477.00
2023-05-18T03:59:23.360Z,478.00
2023-05-18T04:00:23.373Z,478.00
2023-05-18T04:01:23.365Z,479.00
2023-05-18T04:02:23.447Z,479.00
2023-05-18T04:03:23.435Z,481.00
2023-05-18T04:04:23.695Z,484.00
2023-05-18T04:05:23.455Z,484.00
2023-05-18T04:06:23.402Z,484.00
2023-05-18T04:07:23.470Z,485.00
2023-05-18T04:08:23.471Z,484.00
2023-05-18T04:09:23.527Z,483.00
2023-05-18T04:10:23.533Z,483.00
2023-05-18T04:11:23.565Z,485.00
2023-05-18T04:12:23.538Z,483.00
2023-05-18T04:13:23.558Z,484.00
2023-05-18T04:14:23.545Z,483.00
2023-05-18T04:15:23.572Z,482.00
2023-05-18T04:16:23.630Z,480.00
2023-05-18T04:17:23.580Z,479.00
2023-05-18T04:18:23.590Z,479.00
2023-05-18T04:19:23.774Z,478.00
2023-05-18T04:20:23.652Z,478.00
2023-05-18T04:21:23.666Z,476.00
2023-05-18T04:22:23.634Z,475.00
2023-05-18T04:23:23.676Z,475.00
2023-05-18T04:24:23.679Z,473.00
2023-05-18T04:25:23.703Z,471.00
2023-05-18T04:26:23.691Z,469.00
2023-05-18T04:27:23.700Z,472.00
2023-05-18T04:28:23.704Z,471.00
2023-05-18T04:29:23.716Z,472.00
2023-05-18T04:30:23.721Z,472.00
2023-05-18T04:31:23.744Z,472.00
2023-05-18T04:32:23.862Z,473.00
2023-05-18T04:33:23.800Z,473.00
2023-05-18T04:34:24.061Z,472.00
2023-05-18T04:35:23.759Z,471.00
2023-05-18T04:36:23.810Z,472.00
2023-05-18T04:37:23.812Z,474.00
2023-05-18T04:38:23.819Z,476.00
2023-05-18T04:39:23.918Z,478.00
2023-05-18T04:40:23.837Z,475.00
2023-05-18T04:41:23.847Z,477.00
2023-05-18T04:42:23.872Z,476.00
2023-05-18T04:43:23.904Z,479.00
2023-05-18T04:44:23.907Z,478.00
2023-05-18T04:45:23.971Z,478.00
2023-05-18T04:46:24.006Z,478.00
2023-05-18T04:47:24.040Z,478.00
2023-05-18T04:48:23.950Z,476.00
2023-05-18T04:49:24.040Z,473.00
2023-05-18T04:50:24.267Z,471.00
2023-05-18T04:51:24.027Z,470.00
2023-05-18T04:52:23.968Z,470.00
2023-05-18T04:53:24.016Z,471.00
2023-05-18T04:54:24.048Z,472.00
2023-05-18T04:55:24.028Z,473.00
2023-05-18T04:56:24.050Z,472.00
2023-05-18T04:57:24.049Z,472.00
2023-05-18T04:58:24.064Z,470.00
2023-05-18T04:59:24.064Z,471.00
2023-05-18T05:00:24.173Z,469.00
2023-05-18T05:01:24.188Z,470.00
2023-05-18T05:02:24.242Z,470.00
2023-05-18T05:03:24.240Z,468.00
2023-05-18T05:04:24.211Z,469.00
2023-05-18T05:05:24.231Z,469.00
2023-05-18T05:06:24.210Z,471.00
2023-05-18T05:07:24.238Z,472.00
2023-05-18T05:08:24.224Z,471.00
2023-05-18T05:09:24.657Z,471.00
2023-05-18T05:10:24.249Z,470.00
2023-05-18T05:11:24.245Z,472.00
2023-05-18T05:12:24.248Z,471.00
2023-05-18T05:13:24.258Z,470.00
2023-05-18T05:14:24.332Z,470.00
2023-05-18T05:15:24.273Z,469.00
2023-05-18T05:16:24.325Z,471.00
2023-05-18T05:17:24.340Z,468.00
2023-05-18T05:18:24.288Z,471.00
2023-05-18T05:19:24.463Z,472.00
2023-05-18T05:20:24.302Z,475.00
2023-05-18T05:21:24.315Z,477.00
2023-05-18T05:22:24.356Z,476.00
2023-05-18T05:23:24.335Z,477.00
2023-05-18T05:24:24.349Z,477.00
2023-05-18T05:25:24.331Z,475.00
2023-05-18T05:26:24.363Z,475.00
2023-05-18T05:27:24.354Z,474.00
2023-05-18T05:28:24.350Z,472.00
2023-05-18T05:29:24.358Z,472.00
2023-05-18T05:30:24.376Z,472.00
2023-05-18T05:31:24.427Z,471.00
2023-05-18T05:32:24.447Z,471.00
2023-05-18T05:33:24.404Z,472.00
2023-05-18T05:34:24.362Z,472.00
2023-05-18T05:35:24.372Z,473.00
2023-05-18T05:36:24.368Z,472.00
2023-05-18T05:37:24.342Z,468.00
2023-05-18T05:38:24.390Z,467.00
2023-05-18T05:39:24.356Z,468.00
2023-05-18T05:40:24.404Z,467.00
2023-05-18T05:41:24.372Z,466.00
2023-05-18T05:42:24.343Z,466.00
2023-05-18T05:43:24.361Z,467.00
2023-05-18T05:44:24.367Z,468.00
2023-05-18T05:45:24.599Z,469.00
2023-05-18T05:46:24.390Z,470.00
2023-05-18T05:47:24.343Z,471.00
2023-05-18T05:48:24.349Z,472.00
2023-05-18T05:49:24.361Z,474.00
2023-05-18T05:50:24.367Z,474.00
2023-05-18T05:51:24.381Z,474.00
2023-05-18T05:52:24.397Z,472.00
2023-05-18T05:53:24.383Z,472.00
2023-05-18T05:54:24.407Z,470.00
2023-05-18T05:55:24.406Z,471.00
2023-05-18T05:56:24.415Z,471.00
2023-05-18T05:57:24.421Z,474.00
2023-05-18T05:58:24.421Z,475.00
2023-05-18T05:59:24.400Z,473.00
2023-05-18T06:00:24.467Z,473.00
2023-05-18T06:01:24.461Z,475.00
2023-05-18T06:02:24.520Z,477.00
2023-05-18T06:03:24.656Z,477.00
2023-05-18T06:04:24.551Z,476.00
2023-05-18T06:05:24.485Z,475.00
2023-05-18T06:06:24.525Z,474.00
2023-05-18T06:07:24.537Z,473.00
2023-05-18T06:08:24.580Z,473.00
2023-05-18T06:09:24.590Z,471.00
2023-05-18T06:10:24.648Z,470.00
2023-05-18T06:11:24.626Z,470.00
2023-05-18T06:12:24.681Z,469.00
2023-05-18T06:13:24.761Z,470.00
2023-05-18T06:14:24.727Z,470.00
2023-05-18T06:15:24.758Z,471.00
2023-05-18T06:16:24.817Z,470.00
2023-05-18T06:17:24.863Z,471.00
2023-05-18T06:18:24.839Z,472.00
2023-05-18T06:19:25.071Z,470.00
2023-05-18T06:20:24.934Z,471.00
2023-05-18T06:21:24.999Z,471.00
2023-05-18T06:22:25.022Z,470.00
2023-05-18T06:23:25.062Z,470.00
2023-05-18T06:24:25.109Z,469.00
2023-05-18T06:25:25.122Z,469.00
2023-05-18T06:26:25.189Z,470.00
2023-05-18T06:27:25.243Z,471.00
2023-05-18T06:28:25.279Z,469.00
2023-05-18T06:29:25.316Z,468.00
2023-05-18T06:30:25.507Z,469.00
2023-05-18T06:31:25.484Z,471.00
2023-05-18T06:32:25.632Z,472.00
2023-05-18T06:33:25.546Z,472.00
2023-05-18T06:34:25.652Z,473.00
2023-05-18T06:35:25.709Z,475.00
2023-05-18T06:36:25.750Z,476.00
2023-05-18T06:37:25.815Z,480.00
2023-05-18T06:38:25.883Z,481.00
2023-05-18T06:39:25.990Z,481.00
2023-05-18T06:40:26.055Z,479.00
2023-05-18T06:41:26.065Z,477.00
2023-05-18T06:42:26.115Z,477.00
2023-05-18T06:43:26.170Z,478.00
2023-05-18T06:44:26.230Z,478.00
2023-05-18T06:45:26.427Z,478.00
2023-05-18T06:46:26.450Z,475.00
2023-05-18T06:47:26.425Z,476.00
2023-05-18T06:48:26.451Z,473.00
2023-05-18T06:49:26.541Z,470.00
2023-05-18T06:50:26.573Z,470.00
2023-05-18T06:51:26.636Z,473.00
2023-05-18T06:52:27.192Z,474.00
2023-05-18T06:53:26.745Z,473.00
2023-05-18T06:54:26.797Z,473.00
2023-05-18T06:55:26.803Z,471.00
2023-05-18T06:56:26.874Z,470.00
2023-05-18T06:57:26.956Z,470.00
2023-05-18T06:58:26.987Z,468.00
2023-05-18T06:59:27.056Z,468.00
2023-05-18T07:00:27.155Z,469.00
2023-05-18T07:01:27.190Z,468.00
2023-05-18T07:02:27.285Z,469.00
2023-05-18T07:03:27.248Z,467.00
2023-05-18T07:04:27.278Z,467.00
2023-05-18T07:05:27.319Z,466.00
2023-05-18T07:06:27.344Z,462.00
2023-05-18T07:07:27.506Z,460.00
2023-05-18T07:08:27.465Z,460.00
2023-05-18T07:09:27.466Z,462.00
2023-05-18T07:10:27.593Z,462.00
2023-05-18T07:11:29.646Z,462.00
2023-05-18T07:12:27.756Z,462.00
2023-05-18T07:13:27.814Z,461.00
2023-05-18T07:14:27.866Z,460.00
2023-05-18T07:15:27.887Z,460.00
2023-05-18T07:16:28.199Z,457.00
2023-05-18T07:17:28.028Z,458.00
2023-05-18T07:18:28.037Z,461.00
2023-05-18T07:19:28.369Z,460.00
2023-05-18T07:20:28.327Z,459.00
2023-05-18T07:21:28.304Z,459.00
2023-05-18T07:22:28.383Z,459.00
2023-05-18T07:23:28.394Z,461.00
2023-05-18T07:24:28.450Z,462.00
2023-05-18T07:25:28.635Z,462.00
2023-05-18T07:26:28.515Z,462.00
2023-05-18T07:27:28.579Z,463.00
2023-05-18T07:28:28.629Z,464.00
2023-05-18T07:29:28.684Z,466.00
2023-05-18T07:30:28.748Z,465.00
2023-05-18T07:31:28.853Z,465.00
2023-05-18T07:32:28.798Z,467.00
2023-05-18T07:33:28.820Z,467.00
2023-05-18T07:34:28.888Z,468.00
2023-05-18T07:35:29.144Z,467.00
2023-05-18T07:36:28.943Z,465.00
2023-05-18T07:37:29.041Z,466.00
2023-05-18T07:38:29.028Z,466.00
2023-05-18T07:39:29.154Z,467.00
2023-05-18T07:40:29.128Z,467.00
2023-05-18T07:41:29.176Z,465.00
2023-05-18T07:42:29.241Z,463.00
2023-05-18T07:43:29.245Z,461.00
2023-05-18T07:44:29.289Z,460.00
2023-05-18T07:45:29.538Z,459.00
2023-05-18T07:46:29.405Z,458.00
2023-05-18T07:47:29.446Z,458.00
2023-05-18T07:48:29.444Z,457.00
2023-05-18T07:49:29.631Z,454.00
2023-05-18T07:50:29.668Z,454.00
2023-05-18T07:51:29.604Z,452.00
2023-05-18T07:52:29.576Z,454.00
2023-05-18T07:53:29.609Z,455.00
2023-05-18T07:54:29.622Z,455.00
2023-05-18T07:55:29.938Z,456.00
2023-05-18T07:56:29.713Z,456.00
2023-05-18T07:57:29.749Z,458.00
2023-05-18T07:58:29.773Z,460.00
2023-05-18T07:59:29.835Z,459.00
2023-05-18T08:00:29.833Z,458.00
2023-05-18T08:01:29.907Z,458.00
2023-05-18T08:02:32.878Z,457.00
2023-05-18T08:03:30.035Z,458.00
2023-05-18T08:04:30.080Z,457.00
2023-05-18T08:05:30.188Z,459.00
2023-05-18T08:06:29.941Z,462.00
2023-05-18T08:07:29.957Z,461.00
2023-05-18T08:08:29.888Z,460.00
2023-05-18T08:09:29.878Z,456.00
2023-05-18T08:10:29.862Z,457.00
2023-05-18T08:11:29.837Z,460.00
2023-05-18T08:12:29.882Z,460.00
2023-05-18T08:13:30.854Z,459.00
2023-05-18T08:14:29.825Z,459.00
2023-05-18T08:15:30.032Z,458.00
2023-05-18T08:16:29.890Z,458.00
2023-05-18T08:17:29.841Z,458.00
2023-05-18T08:18:29.833Z,460.00
2023-05-18T08:19:29.957Z,461.00
2023-05-18T08:20:29.810Z,462.00
2023-05-18T08:21:29.831Z,461.00
2023-05-18T08:22:29.790Z,462.00
2023-05-18T08:23:29.783Z,464.00
2023-05-18T08:24:29.812Z,467.00
2023-05-18T08:25:29.959Z,466.00
2023-05-18T08:26:29.742Z,468.00
2023-05-18T08:27:29.828Z,464.00
2023-05-18T08:28:29.751Z,463.00
2023-05-18T08:29:29.783Z,462.00
2023-05-18T08:30:29.724Z,461.00
2023-05-18T08:31:29.767Z,462.00
2023-05-18T08:32:29.761Z,462.00
2023-05-18T08:33:29.714Z,458.00
2023-05-18T08:34:29.726Z,457.00
2023-05-18T08:35:30.002Z,458.00
2023-05-18T08:36:29.725Z,458.00
2023-05-18T08:37:29.779Z,458.00
2023-05-18T08:38:29.670Z,456.00
2023-05-18T08:39:29.667Z,458.00
2023-05-18T08:40:29.670Z,459.00
2023-05-18T08:41:29.648Z,459.00
2023-05-18T08:42:38.055Z,459.00
2023-05-18T08:43:30.659Z,460.00
2023-05-18T08:44:29.631Z,460.00
2023-05-18T08:45:29.890Z,462.00
2023-05-18T08:46:29.600Z,462.00
2023-05-18T08:47:29.624Z,461.00
2023-05-18T08:48:29.689Z,458.00
2023-05-18T08:49:29.622Z,457.00
2023-05-18T08:50:29.873Z,458.00
2023-05-18T08:51:29.617Z,458.00
2023-05-18T08:52:29.604Z,459.00
2023-05-18T08:53:29.567Z,460.00
2023-05-18T08:54:29.624Z,461.00
2023-05-18T08:55:29.797Z,461.00
2023-05-18T08:56:29.642Z,459.00
2023-05-18T08:57:29.638Z,461.00
2023-05-18T08:58:29.672Z,460.00
2023-05-18T08:59:29.686Z,461.00
2023-05-18T09:00:30.119Z,459.00
2023-05-18T09:01:29.884Z,459.00
2023-05-18T09:02:29.727Z,458.00
2023-05-18T09:03:29.729Z,458.00
2023-05-18T09:04:29.760Z,457.00
2023-05-18T09:05:30.067Z,458.00
2023-05-18T09:06:29.772Z,457.00
2023-05-18T09:07:29.781Z,458.00
2023-05-18T09:08:29.804Z,460.00
2023-05-18T09:09:29.783Z,459.00
2023-05-18T09:10:29.904Z,457.00
2023-05-18T09:11:29.869Z,458.00
2023-05-18T09:12:29.873Z,460.00
2023-05-18T09:13:29.865Z,462.00
2023-05-18T09:14:29.929Z,465.00
2023-05-18T09:15:30.071Z,462.00
2023-05-18T09:16:29.993Z,461.00
2023-05-18T09:17:29.987Z,461.00
2023-05-18T09:18:29.949Z,461.00
2023-05-18T09:19:30.001Z,462.00
2023-05-18T09:20:30.004Z,463.00
2023-05-18T09:21:30.024Z,464.00
2023-05-18T09:22:30.043Z,463.00
2023-05-18T09:23:30.046Z,461.00
2023-05-18T09:24:30.030Z,461.00
2023-05-18T09:25:30.241Z,461.00
2023-05-18T09:26:30.068Z,461.00
2023-05-18T09:27:30.007Z,462.00
2023-05-18T09:28:30.192Z,461.00
2023-05-18T09:29:32.371Z,462.00
2023-05-18T09:30:30.032Z,464.00
2023-05-18T09:31:30.059Z,465.00
2023-05-18T09:32:30.063Z,462.00
2023-05-18T09:33:30.085Z,462.00
2023-05-18T09:34:29.999Z,460.00
2023-05-18T09:35:30.262Z,457.00
2023-05-18T09:36:30.051Z,456.00
2023-05-18T09:37:30.024Z,455.00
2023-05-18T09:38:29.985Z,454.00
2023-05-18T09:39:29.970Z,454.00
2023-05-18T09:40:30.004Z,456.00
2023-05-18T09:41:29.969Z,456.00
2023-05-18T09:42:29.973Z,458.00
2023-05-18T09:43:29.975Z,459.00
2023-05-18T09:44:30.036Z,459.00
2023-05-18T09:45:30.313Z,461.00
2023-05-18T09:46:30.025Z,460.00
2023-05-18T09:47:29.996Z,459.00
2023-05-18T09:48:29.961Z,459.00
2023-05-18T09:49:29.920Z,459.00
2023-05-18T09:50:29.912Z,460.00
2023-05-18T09:51:29.943Z,459.00
2023-05-18T09:52:29.938Z,459.00
2023-05-18T09:53:29.954Z,458.00
2023-05-18T09:54:29.859Z,459.00
2023-05-18T09:55:30.029Z,458.00
2023-05-18T09:56:29.897Z,455.00
2023-05-18T09:57:29.843Z,453.00
2023-05-18T09:58:29.845Z,452.00
2023-05-18T09:59:29.826Z,451.00
2023-05-18T10:00:29.894Z,452.00
2023-05-18T10:01:29.934Z,454.00
2023-05-18T10:02:29.853Z,454.00
2023-05-18T10:03:29.898Z,455.00
2023-05-18T10:04:30.156Z,456.00
2023-05-18T10:05:30.294Z,456.00
2023-05-18T10:06:29.835Z,458.00
2023-05-18T10:07:29.779Z,457.00
2023-05-18T10:08:29.850Z,458.00
2023-05-18T10:09:29.864Z,460.00
2023-05-18T10:10:30.020Z,460.00
2023-05-18T10:11:29.792Z,457.00
2023-05-18T10:12:29.782Z,458.00
2023-05-18T10:13:29.822Z,458.00
2023-05-18T10:14:31.366Z,459.00
2023-05-18T10:15:29.995Z,460.00
2023-05-18T10:16:29.837Z,459.00
2023-05-18T10:17:29.840Z,458.00
2023-05-18T10:18:29.791Z,458.00
2023-05-18T10:19:30.269Z,457.00
2023-05-18T10:20:29.820Z,456.00
2023-05-18T10:21:29.727Z,456.00
2023-05-18T10:22:29.731Z,454.00
2023-05-18T10:23:29.740Z,453.00
2023-05-18T10:24:29.687Z,452.00
2023-05-18T10:25:29.692Z,452.00
2023-05-18T10:26:29.690Z,454.00
2023-05-18T10:27:29.677Z,457.00
2023-05-18T10:28:29.674Z,459.00
2023-05-18T10:29:29.726Z,460.00
2023-05-18T10:30:29.933Z,459.00
2023-05-18T10:31:29.828Z,458.00
2023-05-18T10:32:29.857Z,459.00
2023-05-18T10:33:30.309Z,457.00
2023-05-18T10:34:29.842Z,459.00
2023-05-18T10:35:29.932Z,461.00
2023-05-18T10:36:29.945Z,462.00
2023-05-18T10:37:29.981Z,460.00
2023-05-18T10:38:29.988Z,460.00
2023-05-18T10:39:30.064Z,459.00
2023-05-18T10:40:30.221Z,456.00
2023-05-18T10:41:30.174Z,457.00
2023-05-18T10:42:30.197Z,457.00
2023-05-18T10:43:30.299Z,457.00
2023-05-18T10:44:30.293Z,458.00
2023-05-18T10:45:30.348Z,459.00
2023-05-18T10:46:30.425Z,460.00
2023-05-18T10:47:30.546Z,460.00
2023-05-18T10:48:30.583Z,461.00
2023-05-18T10:49:30.528Z,463.00
2023-05-18T10:50:30.900Z,467.00
2023-05-18T10:51:30.657Z,465.00
2023-05-18T10:52:30.656Z,466.00
2023-05-18T10:53:30.758Z,469.00
2023-05-18T10:54:30.749Z,468.00
2023-05-18T10:55:30.896Z,468.00
2023-05-18T10:56:30.898Z,467.00
2023-05-18T10:57:30.974Z,467.00
2023-05-18T10:58:31.057Z,465.00
2023-05-18T10:59:31.052Z,463.00
2023-05-18T11:00:31.398Z,461.00
2023-05-18T11:01:31.220Z,461.00
2023-05-18T11:02:31.288Z,462.00
2023-05-18T11:03:31.338Z,462.00
2023-05-18T11:04:31.476Z,461.00
2023-05-18T11:05:31.467Z,459.00
2023-05-18T11:06:31.571Z,458.00
2023-05-18T11:07:31.583Z,455.00
2023-05-18T11:09:50.556Z,471.00
2023-05-18T11:10:50.846Z,469.00
2023-05-18T11:11:51.103Z,467.00
2023-05-18T11:12:51.182Z,466.00
2023-05-18T11:13:51.316Z,466.00
2023-05-18T11:14:51.586Z,465.00
2023-05-18T11:15:51.776Z,463.00
2023-05-18T11:16:51.941Z,463.00
2023-05-18T11:17:52.145Z,462.00
2023-05-18T11:18:52.303Z,463.00
2023-05-18T11:19:52.387Z,462.00
2023-05-18T11:20:52.589Z,460.00
2023-05-18T11:21:52.772Z,461.00
2023-05-18T11:22:52.930Z,462.00
2023-05-18T11:23:53.086Z,463.00
2023-05-18T11:24:53.307Z,462.00
2023-05-18T11:25:53.365Z,463.00
2023-05-18T11:26:53.526Z,466.00
2023-05-18T11:27:53.684Z,467.00
2023-05-18T11:28:53.875Z,468.00
2023-05-18T11:30:03.879Z,468.00
2023-05-18T11:30:54.807Z,469.00
2023-05-18T11:31:53.920Z,467.00
2023-05-18T11:32:53.845Z,465.00
2023-05-18T11:33:53.811Z,465.00
2023-05-18T11:34:53.759Z,465.00
2023-05-18T11:35:53.785Z,466.00
2023-05-18T11:36:53.819Z,466.00
2023-05-18T11:37:53.741Z,468.00
2023-05-18T11:38:53.804Z,468.00
2023-05-18T11:39:59.415Z,470.00
2023-05-18T11:40:54.773Z,468.00
2023-05-18T11:41:53.844Z,465.00
2023-05-18T11:42:53.756Z,465.00
2023-05-18T11:43:54.225Z,466.00
2023-05-18T11:44:54.097Z,467.00
2023-05-18T11:45:53.756Z,468.00
2023-05-18T11:46:53.748Z,467.00
2023-05-18T11:47:54.335Z,467.00
2023-05-18T11:48:53.805Z,467.00
2023-05-18T11:49:53.831Z,469.00
2023-05-18T11:50:53.898Z,467.00
2023-05-18T11:51:53.911Z,466.00
2023-05-18T11:52:54.000Z,466.00
2023-05-18T11:53:54.042Z,465.00
2023-05-18T11:54:54.110Z,464.00
2023-05-18T11:55:54.238Z,465.00
2023-05-18T11:56:54.281Z,465.00
2023-05-18T11:57:54.274Z,465.00
2023-05-18T11:58:54.344Z,465.00
2023-05-18T11:59:54.402Z,464.00
2023-05-18T12:00:54.459Z,464.00
2023-05-18T12:01:54.536Z,465.00
2023-05-18T12:02:54.711Z,465.00
2023-05-18T12:03:54.738Z,466.00
2023-05-18T12:04:54.831Z,466.00
2023-05-18T12:05:54.726Z,465.00
2023-05-18T12:06:54.803Z,465.00
2023-05-18T12:07:54.900Z,465.00
2023-05-18T12:08:54.921Z,468.00
2023-05-18T12:09:54.968Z,468.00
2023-05-18T12:10:55.097Z,468.00
2023-05-18T12:11:55.094Z,467.00
2023-05-18T12:12:55.168Z,467.00
2023-05-18T12:13:55.198Z,467.00
2023-05-18T12:14:55.285Z,465.00
2023-05-18T12:15:56.863Z,464.00
2023-05-18T12:16:55.347Z,464.00
2023-05-18T12:17:55.303Z,464.00
2023-05-18T12:18:55.349Z,463.00
2023-05-18T12:19:55.298Z,462.00
2023-05-18T12:20:55.320Z,461.00
2023-05-18T12:21:56.696Z,460.00
2023-05-18T12:22:55.451Z,459.00
2023-05-18T12:23:55.481Z,458.00
2023-05-18T12:24:55.546Z,455.00
2023-05-18T12:25:55.578Z,457.00
2023-05-18T12:26:55.504Z,459.00
2023-05-18T12:27:55.568Z,458.00
2023-05-18T12:28:55.686Z,458.00
2023-05-18T12:29:55.681Z,459.00